Weather at Drummond Island / Yacht Haven SPB

Public forecast

Using degrees Fahrenheit for public forecast. Weather courtesy of forecast.io.

Closest aviation weather report (METAR) to Drummond Island / Yacht Haven SPB

Closest report is Drummond Island Airport, 1.0 nm (1.8 km) SSE. Retrieved 2021/10/28 09:35 UTC (7 minutes ago):

KDRM 280935Z AUTO 10003KT 10SM CLR 09/06 A2995 RMK AO2 T00860063

Closest aviation forecast (TAF) to Drummond Island / Yacht Haven SPB

Closest forecast is Sault Ste Marie Airport, 41.8 nm (77.5 km) NW. Retrieved 2021/10/28 08:42 UTC (60 minutes ago):

TAF TAF CYAM 280740Z 2808/2820 09007KT P6SM SCT020 PROB40 2808/2812 1/2SM FG VV002 FM281200 08007KT P6SM BKN015 TEMPO 2812/2814 FEW015 PROB30 2812/2814 3/4SM BR BKN003 FM281400 11012KT P6SM FEW012 BECMG 2814/2816 11012G22KT BECMG 2818/2820 11015G25KT RMK NXT FCST BY 281400Z